Terminal Aerodrome Forecast
Issued by NWS

Home | Current Version | Previous Version | Graphics & Text | Print | Product List | Glossary On
Versions: 1 2 3 4 5 6 7 8 9 10 11 12 13 14 15 16
675
FTUS41 KCLE 262326
TAFFDY
TAF
KFDY 262326Z 2700/2724 17004KT P6SM SCT090 BKN200
     FM271200 24004KT P6SM SCT050 OVC100
     FM271600 18004KT P6SM -SHRA VCTS SCT030CB BKN090
     FM272100 10005KT P6SM SCT024 BKN070=

USA.gov is the U.S. government's official web portal to all federal, state and local government web resources and services.